Terminal Aerodrome Forecast
Issued by NWS Grand Forks, ND

Home | Current Version | Previous Version | Text Only | Print | Product List | Glossary On
Versions: 1 2 3 4 5 6 7 8 9 10 11 12 13 14 15 16 17 18 19 20
000
FTUS43 KFGF 242321
TAFGFK
TAF
KGFK 242321Z 2500/2524 27013KT P6SM SCT070
      TEMPO 2500/2502 BKN070
     FM250700 28010KT P6SM BKN120
     FM251300 31012KT P6SM OVC015
     FM251700 32014KT P6SM BKN030
     FM252000 32011KT P6SM BKN045
     FM252100 32010KT P6SM SCT060=

USA.gov is the U.S. government's official web portal to all federal, state and local government web resources and services.